sensor_id;sensor_type;location;lat;lon;timestamp;P1;durP1;ratioP1;P2;durP2;ratioP2
44832;SDS011;30569;51.252;9.830;2022-12-18T00:01:33;14.90;;;8.33;;
44832;SDS011;30569;51.252;9.830;2022-12-18T00:04:01;12.53;;;6.97;;
44832;SDS011;30569;51.252;9.830;2022-12-18T00:06:30;11.83;;;6.80;;
44832;SDS011;30569;51.252;9.830;2022-12-18T00:08:58;12.10;;;6.47;;
44832;SDS011;30569;51.252;9.830;2022-12-18T00:11:25;12.83;;;6.30;;
44832;SDS011;30569;51.252;9.830;2022-12-18T00:13:53;14.30;;;7.40;;
44832;SDS011;30569;51.252;9.830;2022-12-18T00:16:21;10.80;;;6.27;;
44832;SDS011;30569;51.252;9.830;2022-12-18T00:18:48;10.70;;;6.83;;
44832;SDS011;30569;51.252;9.830;2022-12-18T00:21:15;11.90;;;6.40;;
44832;SDS011;30569;51.252;9.830;2022-12-18T00:23:41;13.70;;;7.00;;
44832;SDS011;30569;51.252;9.830;2022-12-18T00:26:22;17.67;;;7.67;;
44832;SDS011;30569;51.252;9.830;2022-12-18T00:28:49;13.70;;;7.47;;
44832;SDS011;30569;51.252;9.830;2022-12-18T00:31:16;14.60;;;7.80;;
44832;SDS011;30569;51.252;9.830;2022-12-18T00:33:44;12.57;;;7.23;;
44832;SDS011;30569;51.252;9.830;2022-12-18T00:36:14;11.10;;;6.97;;
44832;SDS011;30569;51.252;9.830;2022-12-18T00:38:42;12.60;;;7.53;;
44832;SDS011;30569;51.252;9.830;2022-12-18T00:41:08;10.77;;;6.17;;
44832;SDS011;30569;51.252;9.830;2022-12-18T00:43:35;13.63;;;7.33;;
44832;SDS011;30569;51.252;9.830;2022-12-18T00:46:02;12.10;;;7.90;;
44832;SDS011;30569;51.252;9.830;2022-12-18T00:48:28;11.53;;;6.73;;
44832;SDS011;30569;51.252;9.830;2022-12-18T00:50:54;10.50;;;6.93;;
44832;SDS011;30569;51.252;9.830;2022-12-18T00:53:20;12.33;;;7.73;;
44832;SDS011;30569;51.252;9.830;2022-12-18T00:55:46;13.20;;;7.97;;
44832;SDS011;30569;51.252;9.830;2022-12-18T00:58:12;12.87;;;7.30;;
44832;SDS011;30569;51.252;9.830;2022-12-18T01:00:39;11.60;;;7.23;;
44832;SDS011;30569;51.252;9.830;2022-12-18T01:03:05;11.53;;;6.67;;
44832;SDS011;30569;51.252;9.830;2022-12-18T01:05:31;15.50;;;7.57;;
44832;SDS011;30569;51.252;9.830;2022-12-18T01:07:57;13.97;;;7.73;;
44832;SDS011;30569;51.252;9.830;2022-12-18T01:10:23;13.83;;;7.20;;
44832;SDS011;30569;51.252;9.830;2022-12-18T01:12:50;16.30;;;8.20;;
44832;SDS011;30569;51.252;9.830;2022-12-18T01:15:15;11.77;;;6.83;;
44832;SDS011;30569;51.252;9.830;2022-12-18T01:17:42;11.37;;;6.77;;
44832;SDS011;30569;51.252;9.830;2022-12-18T01:20:08;13.80;;;8.20;;
44832;SDS011;30569;51.252;9.830;2022-12-18T01:22:35;13.87;;;7.07;;
44832;SDS011;30569;51.252;9.830;2022-12-18T01:25:01;10.37;;;6.90;;
44832;SDS011;30569;51.252;9.830;2022-12-18T01:27:27;14.03;;;6.50;;
44832;SDS011;30569;51.252;9.830;2022-12-18T01:29:53;13.80;;;6.80;;
44832;SDS011;30569;51.252;9.830;2022-12-18T01:32:19;13.93;;;6.20;;
44832;SDS011;30569;51.252;9.830;2022-12-18T01:34:44;11.13;;;6.50;;
44832;SDS011;30569;51.252;9.830;2022-12-18T01:37:10;11.60;;;5.97;;
44832;SDS011;30569;51.252;9.830;2022-12-18T01:39:36;8.73;;;6.27;;
44832;SDS011;30569;51.252;9.830;2022-12-18T01:42:11;10.03;;;6.50;;
44832;SDS011;30569;51.252;9.830;2022-12-18T01:44:55;11.73;;;6.07;;
44832;SDS011;30569;51.252;9.830;2022-12-18T01:47:26;10.53;;;6.20;;
44832;SDS011;30569;51.252;9.830;2022-12-18T01:50:03;13.60;;;6.47;;
44832;SDS011;30569;51.252;9.830;2022-12-18T01:52:35;10.63;;;6.40;;
44832;SDS011;30569;51.252;9.830;2022-12-18T01:55:10;11.40;;;6.00;;
44832;SDS011;30569;51.252;9.830;2022-12-18T01:57:38;10.50;;;6.37;;
44832;SDS011;30569;51.252;9.830;2022-12-18T02:00:08;11.27;;;6.43;;
44832;SDS011;30569;51.252;9.830;2022-12-18T02:02:36;12.93;;;6.67;;
44832;SDS011;30569;51.252;9.830;2022-12-18T02:05:02;13.87;;;6.07;;
44832;SDS011;30569;51.252;9.830;2022-12-18T02:12:52;11.57;;;5.70;;
44832;SDS011;30569;51.252;9.830;2022-12-18T02:15:27;14.27;;;6.07;;
44832;SDS011;30569;51.252;9.830;2022-12-18T02:18:11;10.03;;;5.90;;
44832;SDS011;30569;51.252;9.830;2022-12-18T02:20:45;10.00;;;6.40;;
44832;SDS011;30569;51.252;9.830;2022-12-18T02:23:40;12.27;;;6.63;;
44832;SDS011;30569;51.252;9.830;2022-12-18T02:28:52;14.73;;;6.73;;
44832;SDS011;30569;51.252;9.830;2022-12-18T02:31:26;11.27;;;6.60;;
44832;SDS011;30569;51.252;9.830;2022-12-18T02:33:58;13.17;;;6.60;;
44832;SDS011;30569;51.252;9.830;2022-12-18T02:36:27;12.67;;;6.57;;
44832;SDS011;30569;51.252;9.830;2022-12-18T02:38:53;12.73;;;7.33;;
44832;SDS011;30569;51.252;9.830;2022-12-18T02:41:23;14.73;;;7.13;;
44832;SDS011;30569;51.252;9.830;2022-12-18T02:43:53;11.33;;;6.50;;
44832;SDS011;30569;51.252;9.830;2022-12-18T02:48:53;12.27;;;7.70;;
44832;SDS011;30569;51.252;9.830;2022-12-18T02:51:44;12.50;;;6.07;;
44832;SDS011;30569;51.252;9.830;2022-12-18T02:54:22;13.00;;;6.47;;
44832;SDS011;30569;51.252;9.830;2022-12-18T02:57:00;11.45;;;6.40;;
44832;SDS011;30569;51.252;9.830;2022-12-18T02:59:58;16.37;;;6.63;;
44832;SDS011;30569;51.252;9.830;2022-12-18T03:10:21;12.10;;;5.73;;
44832;SDS011;30569;51.252;9.830;2022-12-18T03:12:52;9.37;;;5.90;;
44832;SDS011;30569;51.252;9.830;2022-12-18T03:15:24;10.57;;;6.88;;
44832;SDS011;30569;51.252;9.830;2022-12-18T03:18:06;10.53;;;6.30;;
44832;SDS011;30569;51.252;9.830;2022-12-18T03:20:43;11.63;;;6.30;;
44832;SDS011;30569;51.252;9.830;2022-12-18T03:23:11;12.23;;;6.40;;
44832;SDS011;30569;51.252;9.830;2022-12-18T03:25:41;10.30;;;5.93;;
44832;SDS011;30569;51.252;9.830;2022-12-18T03:28:10;11.70;;;5.90;;
44832;SDS011;30569;51.252;9.830;2022-12-18T03:30:44;10.50;;;6.17;;
44832;SDS011;30569;51.252;9.830;2022-12-18T03:33:29;9.60;;;6.27;;
44832;SDS011;30569;51.252;9.830;2022-12-18T03:35:59;10.60;;;6.97;;
44832;SDS011;30569;51.252;9.830;2022-12-18T03:38:25;12.43;;;6.87;;
44832;SDS011;30569;51.252;9.830;2022-12-18T03:46:40;12.97;;;7.07;;
44832;SDS011;30569;51.252;9.830;2022-12-18T03:49:13;10.10;;;5.87;;
44832;SDS011;30569;51.252;9.830;2022-12-18T03:51:52;10.63;;;6.27;;
44832;SDS011;30569;51.252;9.830;2022-12-18T03:54:28;8.43;;;6.37;;
44832;SDS011;30569;51.252;9.830;2022-12-18T03:57:04;14.23;;;6.63;;
44832;SDS011;30569;51.252;9.830;2022-12-18T03:59:45;10.00;;;7.10;;
44832;SDS011;30569;51.252;9.830;2022-12-18T04:02:15;9.40;;;5.90;;
44832;SDS011;30569;51.252;9.830;2022-12-18T04:04:42;12.60;;;6.87;;
44832;SDS011;30569;51.252;9.830;2022-12-18T04:07:10;12.97;;;6.63;;
44832;SDS011;30569;51.252;9.830;2022-12-18T04:09:36;9.83;;;6.67;;
44832;SDS011;30569;51.252;9.830;2022-12-18T04:12:03;10.87;;;6.43;;
44832;SDS011;30569;51.252;9.830;2022-12-18T04:14:29;11.70;;;6.37;;
44832;SDS011;30569;51.252;9.830;2022-12-18T04:17:00;9.40;;;6.20;;
44832;SDS011;30569;51.252;9.830;2022-12-18T04:19:26;10.07;;;6.07;;
44832;SDS011;30569;51.252;9.830;2022-12-18T04:21:52;9.83;;;6.37;;
44832;SDS011;30569;51.252;9.830;2022-12-18T04:24:18;10.50;;;6.40;;
44832;SDS011;30569;51.252;9.830;2022-12-18T04:26:44;8.70;;;6.40;;
44832;SDS011;30569;51.252;9.830;2022-12-18T04:29:10;8.43;;;5.93;;
44832;SDS011;30569;51.252;9.830;2022-12-18T04:31:35;10.80;;;6.30;;
44832;SDS011;30569;51.252;9.830;2022-12-18T04:34:01;13.20;;;6.37;;
44832;SDS011;30569;51.252;9.830;2022-12-18T04:36:28;9.00;;;6.23;;
44832;SDS011;30569;51.252;9.830;2022-12-18T04:38:53;12.83;;;6.43;;
44832;SDS011;30569;51.252;9.830;2022-12-18T04:41:19;10.40;;;7.10;;
44832;SDS011;30569;51.252;9.830;2022-12-18T04:43:45;8.67;;;6.20;;
44832;SDS011;30569;51.252;9.830;2022-12-18T04:46:11;11.73;;;5.90;;
44832;SDS011;30569;51.252;9.830;2022-12-18T04:48:37;10.07;;;5.87;;
44832;SDS011;30569;51.252;9.830;2022-12-18T04:51:04;12.53;;;6.60;;
44832;SDS011;30569;51.252;9.830;2022-12-18T04:53:30;10.20;;;5.90;;
44832;SDS011;30569;51.252;9.830;2022-12-18T04:56:03;11.33;;;7.00;;
44832;SDS011;30569;51.252;9.830;2022-12-18T04:58:30;12.83;;;7.10;;
44832;SDS011;30569;51.252;9.830;2022-12-18T05:00:55;13.27;;;6.90;;
44832;SDS011;30569;51.252;9.830;2022-12-18T05:03:21;11.00;;;6.00;;
44832;SDS011;30569;51.252;9.830;2022-12-18T05:05:50;15.20;;;6.63;;
44832;SDS011;30569;51.252;9.830;2022-12-18T05:08:16;14.97;;;6.93;;
44832;SDS011;30569;51.252;9.830;2022-12-18T05:10:42;9.83;;;6.20;;
44832;SDS011;30569;51.252;9.830;2022-12-18T05:13:08;9.77;;;5.63;;
44832;SDS011;30569;51.252;9.830;2022-12-18T05:15:34;8.47;;;6.00;;
44832;SDS011;30569;51.252;9.830;2022-12-18T05:18:00;10.00;;;6.40;;
44832;SDS011;30569;51.252;9.830;2022-12-18T05:20:26;9.77;;;6.63;;
44832;SDS011;30569;51.252;9.830;2022-12-18T05:22:53;14.53;;;6.83;;
44832;SDS011;30569;51.252;9.830;2022-12-18T05:25:19;11.90;;;6.63;;
44832;SDS011;30569;51.252;9.830;2022-12-18T05:27:45;10.87;;;6.33;;
44832;SDS011;30569;51.252;9.830;2022-12-18T05:30:11;8.83;;;5.50;;
44832;SDS011;30569;51.252;9.830;2022-12-18T05:32:37;14.23;;;6.80;;
44832;SDS011;30569;51.252;9.830;2022-12-18T05:35:05;10.53;;;6.13;;
44832;SDS011;30569;51.252;9.830;2022-12-18T05:37:32;9.30;;;6.10;;
44832;SDS011;30569;51.252;9.830;2022-12-18T05:39:58;12.17;;;6.57;;
44832;SDS011;30569;51.252;9.830;2022-12-18T05:42:24;11.53;;;6.80;;
44832;SDS011;30569;51.252;9.830;2022-12-18T05:44:50;10.63;;;6.77;;
44832;SDS011;30569;51.252;9.830;2022-12-18T05:47:16;11.30;;;6.47;;
44832;SDS011;30569;51.252;9.830;2022-12-18T05:49:41;8.40;;;6.10;;
44832;SDS011;30569;51.252;9.830;2022-12-18T05:52:08;11.43;;;6.40;;
44832;SDS011;30569;51.252;9.830;2022-12-18T05:54:33;10.27;;;6.97;;
44832;SDS011;30569;51.252;9.830;2022-12-18T05:56:59;11.23;;;7.00;;
44832;SDS011;30569;51.252;9.830;2022-12-18T05:59:25;14.87;;;7.53;;
44832;SDS011;30569;51.252;9.830;2022-12-18T06:01:51;16.37;;;8.27;;
44832;SDS011;30569;51.252;9.830;2022-12-18T06:04:17;14.83;;;8.40;;
44832;SDS011;30569;51.252;9.830;2022-12-18T06:06:43;21.83;;;12.07;;
44832;SDS011;30569;51.252;9.830;2022-12-18T06:09:08;19.53;;;10.77;;
44832;SDS011;30569;51.252;9.830;2022-12-18T06:11:37;16.43;;;9.90;;
44832;SDS011;30569;51.252;9.830;2022-12-18T06:14:04;17.07;;;10.20;;
44832;SDS011;30569;51.252;9.830;2022-12-18T06:16:31;16.67;;;9.10;;
44832;SDS011;30569;51.252;9.830;2022-12-18T06:19:00;18.67;;;9.13;;
44832;SDS011;30569;51.252;9.830;2022-12-18T06:21:28;19.93;;;9.80;;
44832;SDS011;30569;51.252;9.830;2022-12-18T06:23:54;15.73;;;9.27;;
44832;SDS011;30569;51.252;9.830;2022-12-18T06:26:20;13.90;;;7.67;;
44832;SDS011;30569;51.252;9.830;2022-12-18T06:28:46;14.83;;;8.17;;
44832;SDS011;30569;51.252;9.830;2022-12-18T06:31:12;12.77;;;8.47;;
44832;SDS011;30569;51.252;9.830;2022-12-18T06:33:38;16.03;;;7.73;;
44832;SDS011;30569;51.252;9.830;2022-12-18T06:36:05;13.07;;;8.30;;
44832;SDS011;30569;51.252;9.830;2022-12-18T06:38:37;12.77;;;7.63;;
44832;SDS011;30569;51.252;9.830;2022-12-18T06:41:08;13.87;;;8.10;;
44832;SDS011;30569;51.252;9.830;2022-12-18T06:43:34;14.63;;;8.20;;
44832;SDS011;30569;51.252;9.830;2022-12-18T06:45:59;12.93;;;7.17;;
44832;SDS011;30569;51.252;9.830;2022-12-18T06:48:26;17.17;;;7.87;;
44832;SDS011;30569;51.252;9.830;2022-12-18T06:50:51;12.43;;;6.87;;
44832;SDS011;30569;51.252;9.830;2022-12-18T06:53:17;13.30;;;7.30;;
44832;SDS011;30569;51.252;9.830;2022-12-18T06:55:43;20.83;;;9.60;;
44832;SDS011;30569;51.252;9.830;2022-12-18T06:58:09;25.10;;;11.57;;
44832;SDS011;30569;51.252;9.830;2022-12-18T07:00:35;17.20;;;10.13;;
44832;SDS011;30569;51.252;9.830;2022-12-18T07:03:01;25.03;;;11.63;;
44832;SDS011;30569;51.252;9.830;2022-12-18T07:05:26;36.47;;;16.97;;
44832;SDS011;30569;51.252;9.830;2022-12-18T07:07:52;33.33;;;14.43;;
44832;SDS011;30569;51.252;9.830;2022-12-18T07:10:18;29.33;;;14.37;;
44832;SDS011;30569;51.252;9.830;2022-12-18T07:12:44;28.30;;;14.77;;
44832;SDS011;30569;51.252;9.830;2022-12-18T07:15:10;33.00;;;16.33;;
44832;SDS011;30569;51.252;9.830;2022-12-18T07:17:36;33.10;;;15.33;;
44832;SDS011;30569;51.252;9.830;2022-12-18T07:20:01;28.87;;;13.87;;
44832;SDS011;30569;51.252;9.830;2022-12-18T07:22:27;30.90;;;15.37;;
44832;SDS011;30569;51.252;9.830;2022-12-18T07:24:53;29.43;;;13.63;;
44832;SDS011;30569;51.252;9.830;2022-12-18T07:27:20;25.23;;;12.53;;
44832;SDS011;30569;51.252;9.830;2022-12-18T07:29:46;28.40;;;13.33;;
44832;SDS011;30569;51.252;9.830;2022-12-18T07:32:12;26.20;;;12.83;;
44832;SDS011;30569;51.252;9.830;2022-12-18T07:34:38;21.97;;;11.90;;
44832;SDS011;30569;51.252;9.830;2022-12-18T07:37:04;20.47;;;10.60;;
44832;SDS011;30569;51.252;9.830;2022-12-18T07:39:30;23.33;;;9.00;;
44832;SDS011;30569;51.252;9.830;2022-12-18T07:41:56;21.57;;;9.83;;
44832;SDS011;30569;51.252;9.830;2022-12-18T07:44:40;16.70;;;9.53;;
44832;SDS011;30569;51.252;9.830;2022-12-18T07:47:06;21.80;;;10.10;;
44832;SDS011;30569;51.252;9.830;2022-12-18T07:49:32;18.53;;;9.27;;
44832;SDS011;30569;51.252;9.830;2022-12-18T07:51:58;15.80;;;9.23;;
44832;SDS011;30569;51.252;9.830;2022-12-18T07:54:24;24.73;;;10.13;;
44832;SDS011;30569;51.252;9.830;2022-12-18T07:56:50;17.87;;;10.27;;
44832;SDS011;30569;51.252;9.830;2022-12-18T07:59:17;18.00;;;10.20;;
44832;SDS011;30569;51.252;9.830;2022-12-18T08:01:43;22.33;;;10.87;;
44832;SDS011;30569;51.252;9.830;2022-12-18T08:04:08;15.70;;;9.30;;
44832;SDS011;30569;51.252;9.830;2022-12-18T08:06:34;20.60;;;10.83;;
44832;SDS011;30569;51.252;9.830;2022-12-18T08:09:00;20.43;;;10.70;;
44832;SDS011;30569;51.252;9.830;2022-12-18T08:11:27;22.90;;;11.70;;
44832;SDS011;30569;51.252;9.830;2022-12-18T08:13:53;25.97;;;13.40;;
44832;SDS011;30569;51.252;9.830;2022-12-18T08:16:20;19.53;;;9.43;;
44832;SDS011;30569;51.252;9.830;2022-12-18T08:18:46;24.17;;;11.53;;
44832;SDS011;30569;51.252;9.830;2022-12-18T08:21:13;25.77;;;13.70;;
44832;SDS011;30569;51.252;9.830;2022-12-18T08:23:40;30.17;;;14.43;;
44832;SDS011;30569;51.252;9.830;2022-12-18T08:26:10;23.80;;;12.33;;
44832;SDS011;30569;51.252;9.830;2022-12-18T08:28:36;24.37;;;13.63;;
44832;SDS011;30569;51.252;9.830;2022-12-18T08:31:02;25.30;;;14.07;;
44832;SDS011;30569;51.252;9.830;2022-12-18T08:33:29;28.13;;;13.90;;
44832;SDS011;30569;51.252;9.830;2022-12-18T08:35:55;32.97;;;19.00;;
44832;SDS011;30569;51.252;9.830;2022-12-18T08:38:21;37.97;;;24.30;;
44832;SDS011;30569;51.252;9.830;2022-12-18T08:40:47;31.07;;;16.80;;
44832;SDS011;30569;51.252;9.830;2022-12-18T08:43:13;32.60;;;19.27;;
44832;SDS011;30569;51.252;9.830;2022-12-18T08:45:58;26.70;;;17.03;;
44832;SDS011;30569;51.252;9.830;2022-12-18T08:48:23;31.23;;;16.53;;
44832;SDS011;30569;51.252;9.830;2022-12-18T08:50:56;31.33;;;16.70;;
44832;SDS011;30569;51.252;9.830;2022-12-18T08:53:26;19.00;;;11.27;;
44832;SDS011;30569;51.252;9.830;2022-12-18T08:55:52;15.97;;;8.53;;
44832;SDS011;30569;51.252;9.830;2022-12-18T08:58:18;10.27;;;6.80;;
44832;SDS011;30569;51.252;9.830;2022-12-18T09:00:44;14.17;;;7.50;;
44832;SDS011;30569;51.252;9.830;2022-12-18T09:03:14;11.73;;;6.23;;
44832;SDS011;30569;51.252;9.830;2022-12-18T09:05:40;44.13;;;18.77;;
44832;SDS011;30569;51.252;9.830;2022-12-18T09:08:06;20.43;;;9.97;;
44832;SDS011;30569;51.252;9.830;2022-12-18T09:10:32;19.17;;;9.90;;
44832;SDS011;30569;51.252;9.830;2022-12-18T09:12:58;14.10;;;8.70;;
44832;SDS011;30569;51.252;9.830;2022-12-18T09:15:23;10.83;;;5.97;;
44832;SDS011;30569;51.252;9.830;2022-12-18T09:17:49;8.37;;;5.03;;
44832;SDS011;30569;51.252;9.830;2022-12-18T09:20:17;11.13;;;5.70;;
44832;SDS011;30569;51.252;9.830;2022-12-18T09:22:43;16.70;;;10.07;;
44832;SDS011;30569;51.252;9.830;2022-12-18T09:25:09;10.77;;;6.70;;
44832;SDS011;30569;51.252;9.830;2022-12-18T09:27:35;12.83;;;7.40;;
44832;SDS011;30569;51.252;9.830;2022-12-18T09:30:01;11.57;;;7.40;;
44832;SDS011;30569;51.252;9.830;2022-12-18T09:32:27;31.50;;;15.17;;
44832;SDS011;30569;51.252;9.830;2022-12-18T09:34:53;13.30;;;5.87;;
44832;SDS011;30569;51.252;9.830;2022-12-18T09:37:19;12.40;;;5.63;;
44832;SDS011;30569;51.252;9.830;2022-12-18T09:39:44;10.80;;;5.60;;
44832;SDS011;30569;51.252;9.830;2022-12-18T09:42:20;9.67;;;5.70;;
44832;SDS011;30569;51.252;9.830;2022-12-18T09:44:50;10.73;;;5.27;;
44832;SDS011;30569;51.252;9.830;2022-12-18T09:47:25;11.00;;;5.50;;
44832;SDS011;30569;51.252;9.830;2022-12-18T09:49:56;11.20;;;5.93;;
44832;SDS011;30569;51.252;9.830;2022-12-18T09:52:34;13.10;;;5.23;;
44832;SDS011;30569;51.252;9.830;2022-12-18T09:57:53;8.07;;;4.87;;
44832;SDS011;30569;51.252;9.830;2022-12-18T10:00:22;8.47;;;5.13;;
44832;SDS011;30569;51.252;9.830;2022-12-18T10:02:49;10.07;;;4.37;;
44832;SDS011;30569;51.252;9.830;2022-12-18T10:05:21;9.27;;;4.57;;
44832;SDS011;30569;51.252;9.830;2022-12-18T10:08:06;8.67;;;4.53;;
44832;SDS011;30569;51.252;9.830;2022-12-18T10:13:38;8.30;;;4.80;;
44832;SDS011;30569;51.252;9.830;2022-12-18T10:16:19;10.97;;;5.00;;
44832;SDS011;30569;51.252;9.830;2022-12-18T10:21:41;12.30;;;5.70;;
44832;SDS011;30569;51.252;9.830;2022-12-18T10:27:14;17.73;;;6.70;;
44832;SDS011;30569;51.252;9.830;2022-12-18T10:29:42;79.83;;;29.67;;
44832;SDS011;30569;51.252;9.830;2022-12-18T10:32:13;41.83;;;16.97;;
44832;SDS011;30569;51.252;9.830;2022-12-18T10:34:47;24.03;;;11.53;;
44832;SDS011;30569;51.252;9.830;2022-12-18T10:37:16;33.90;;;12.80;;
44832;SDS011;30569;51.252;9.830;2022-12-18T10:39:44;45.87;;;16.90;;
44832;SDS011;30569;51.252;9.830;2022-12-18T10:42:14;36.43;;;16.47;;
44832;SDS011;30569;51.252;9.830;2022-12-18T10:44:42;79.97;;;29.20;;
44832;SDS011;30569;51.252;9.830;2022-12-18T10:47:11;47.77;;;16.77;;
44832;SDS011;30569;51.252;9.830;2022-12-18T10:49:42;40.47;;;15.90;;
44832;SDS011;30569;51.252;9.830;2022-12-18T10:54:45;10.43;;;4.63;;
44832;SDS011;30569;51.252;9.830;2022-12-18T10:59:55;8.33;;;4.97;;
44832;SDS011;30569;51.252;9.830;2022-12-18T11:02:35;9.07;;;4.70;;
44832;SDS011;30569;51.252;9.830;2022-12-18T11:05:03;9.70;;;4.80;;
44832;SDS011;30569;51.252;9.830;2022-12-18T11:07:49;8.03;;;4.73;;
44832;SDS011;30569;51.252;9.830;2022-12-18T11:10:17;9.77;;;5.20;;
44832;SDS011;30569;51.252;9.830;2022-12-18T11:12:43;8.73;;;4.40;;
44832;SDS011;30569;51.252;9.830;2022-12-18T11:18:05;9.30;;;4.67;;
44832;SDS011;30569;51.252;9.830;2022-12-18T11:21:07;8.83;;;4.53;;
44832;SDS011;30569;51.252;9.830;2022-12-18T11:23:36;10.23;;;5.23;;
44832;SDS011;30569;51.252;9.830;2022-12-18T11:28:36;8.97;;;5.17;;
44832;SDS011;30569;51.252;9.830;2022-12-18T11:31:15;10.03;;;5.13;;
44832;SDS011;30569;51.252;9.830;2022-12-18T11:33:45;9.97;;;5.37;;
44832;SDS011;30569;51.252;9.830;2022-12-18T11:36:14;8.17;;;4.40;;
44832;SDS011;30569;51.252;9.830;2022-12-18T11:38:40;10.17;;;5.20;;
44832;SDS011;30569;51.252;9.830;2022-12-18T11:41:14;11.97;;;5.17;;
44832;SDS011;30569;51.252;9.830;2022-12-18T11:44:29;10.57;;;4.88;;
44832;SDS011;30569;51.252;9.830;2022-12-18T11:47:03;10.20;;;5.90;;
44832;SDS011;30569;51.252;9.830;2022-12-18T11:49:45;11.77;;;5.53;;
44832;SDS011;30569;51.252;9.830;2022-12-18T11:55:04;13.23;;;5.40;;
44832;SDS011;30569;51.252;9.830;2022-12-18T11:57:46;13.85;;;6.85;;
44832;SDS011;30569;51.252;9.830;2022-12-18T12:00:19;12.23;;;6.73;;
44832;SDS011;30569;51.252;9.830;2022-12-18T12:02:51;9.47;;;5.30;;
44832;SDS011;30569;51.252;9.830;2022-12-18T12:05:49;29.40;;;22.83;;
44832;SDS011;30569;51.252;9.830;2022-12-18T12:11:10;9.37;;;6.40;;
44832;SDS011;30569;51.252;9.830;2022-12-18T12:16:18;9.83;;;5.17;;
44832;SDS011;30569;51.252;9.830;2022-12-18T12:27:15;8.00;;;4.20;;
44832;SDS011;30569;51.252;9.830;2022-12-18T12:37:55;9.83;;;4.90;;
44832;SDS011;30569;51.252;9.830;2022-12-18T12:40:26;10.20;;;5.10;;
44832;SDS011;30569;51.252;9.830;2022-12-18T12:42:56;12.87;;;7.47;;
44832;SDS011;30569;51.252;9.830;2022-12-18T12:48:27;10.13;;;5.07;;
44832;SDS011;30569;51.252;9.830;2022-12-18T12:50:57;34.97;;;20.27;;
44832;SDS011;30569;51.252;9.830;2022-12-18T12:53:29;9.83;;;5.00;;
44832;SDS011;30569;51.252;9.830;2022-12-18T12:55:57;15.43;;;7.37;;
44832;SDS011;30569;51.252;9.830;2022-12-18T12:58:36;9.00;;;5.17;;
44832;SDS011;30569;51.252;9.830;2022-12-18T13:09:19;14.53;;;8.27;;
44832;SDS011;30569;51.252;9.830;2022-12-18T13:11:45;12.17;;;5.53;;
44832;SDS011;30569;51.252;9.830;2022-12-18T13:14:31;10.30;;;5.57;;
44832;SDS011;30569;51.252;9.830;2022-12-18T13:20:28;17.50;;;8.15;;
44832;SDS011;30569;51.252;9.830;2022-12-18T13:22:37;18.40;;;10.13;;
44832;SDS011;30569;51.252;9.830;2022-12-18T13:27:57;10.10;;;5.43;;
44832;SDS011;30569;51.252;9.830;2022-12-18T13:35:42;12.03;;;5.67;;
44832;SDS011;30569;51.252;9.830;2022-12-18T13:38:22;8.97;;;5.43;;
44832;SDS011;30569;51.252;9.830;2022-12-18T13:40:54;17.93;;;10.03;;
44832;SDS011;30569;51.252;9.830;2022-12-18T13:43:22;16.20;;;9.27;;
44832;SDS011;30569;51.252;9.830;2022-12-18T13:45:59;10.43;;;5.27;;
44832;SDS011;30569;51.252;9.830;2022-12-18T13:48:43;13.93;;;6.50;;
44832;SDS011;30569;51.252;9.830;2022-12-18T13:51:34;13.53;;;7.23;;
44832;SDS011;30569;51.252;9.830;2022-12-18T13:54:01;21.03;;;9.83;;
44832;SDS011;30569;51.252;9.830;2022-12-18T13:56:42;13.97;;;7.00;;
44832;SDS011;30569;51.252;9.830;2022-12-18T13:59:14;13.18;;;6.50;;
44832;SDS011;30569;51.252;9.830;2022-12-18T14:01:51;12.53;;;6.30;;
44832;SDS011;30569;51.252;9.830;2022-12-18T14:04:28;10.23;;;4.70;;
44832;SDS011;30569;51.252;9.830;2022-12-18T14:09:24;14.57;;;7.27;;
44832;SDS011;30569;51.252;9.830;2022-12-18T14:11:52;13.17;;;6.40;;
44832;SDS011;30569;51.252;9.830;2022-12-18T14:14:41;8.20;;;4.70;;
44832;SDS011;30569;51.252;9.830;2022-12-18T14:17:12;39.93;;;21.03;;
44832;SDS011;30569;51.252;9.830;2022-12-18T14:19:41;17.27;;;9.93;;
44832;SDS011;30569;51.252;9.830;2022-12-18T14:22:15;10.70;;;6.57;;
44832;SDS011;30569;51.252;9.830;2022-12-18T14:24:46;9.33;;;4.10;;
44832;SDS011;30569;51.252;9.830;2022-12-18T14:27:17;9.97;;;5.30;;
44832;SDS011;30569;51.252;9.830;2022-12-18T14:29:49;7.70;;;5.03;;
44832;SDS011;30569;51.252;9.830;2022-12-18T14:32:15;9.77;;;5.40;;
44832;SDS011;30569;51.252;9.830;2022-12-18T14:34:43;9.83;;;5.87;;
44832;SDS011;30569;51.252;9.830;2022-12-18T14:37:15;12.10;;;6.60;;
44832;SDS011;30569;51.252;9.830;2022-12-18T14:39:55;11.60;;;6.03;;
44832;SDS011;30569;51.252;9.830;2022-12-18T14:42:23;11.20;;;6.27;;
44832;SDS011;30569;51.252;9.830;2022-12-18T14:47:42;11.03;;;4.97;;
44832;SDS011;30569;51.252;9.830;2022-12-18T14:50:12;8.33;;;4.70;;
44832;SDS011;30569;51.252;9.830;2022-12-18T14:52:38;9.03;;;4.90;;
44832;SDS011;30569;51.252;9.830;2022-12-18T14:55:05;8.80;;;4.57;;
44832;SDS011;30569;51.252;9.830;2022-12-18T15:00:10;9.53;;;5.63;;
44832;SDS011;30569;51.252;9.830;2022-12-18T15:02:48;8.27;;;4.43;;
44832;SDS011;30569;51.252;9.830;2022-12-18T15:05:18;8.10;;;4.33;;
44832;SDS011;30569;51.252;9.830;2022-12-18T15:07:47;10.17;;;5.30;;
44832;SDS011;30569;51.252;9.830;2022-12-18T15:10:16;11.53;;;7.10;;
44832;SDS011;30569;51.252;9.830;2022-12-18T15:18:03;12.80;;;6.80;;
44832;SDS011;30569;51.252;9.830;2022-12-18T15:20:42;15.13;;;7.03;;
44832;SDS011;30569;51.252;9.830;2022-12-18T15:23:16;13.23;;;6.80;;
44832;SDS011;30569;51.252;9.830;2022-12-18T15:25:49;16.87;;;8.27;;
44832;SDS011;30569;51.252;9.830;2022-12-18T15:28:37;11.70;;;6.57;;
44832;SDS011;30569;51.252;9.830;2022-12-18T15:31:06;16.10;;;6.37;;
44832;SDS011;30569;51.252;9.830;2022-12-18T15:33:43;12.47;;;5.63;;
44832;SDS011;30569;51.252;9.830;2022-12-18T15:36:29;12.53;;;6.37;;
44832;SDS011;30569;51.252;9.830;2022-12-18T15:38:55;13.77;;;7.60;;
44832;SDS011;30569;51.252;9.830;2022-12-18T15:41:22;14.50;;;7.37;;
44832;SDS011;30569;51.252;9.830;2022-12-18T15:43:49;13.67;;;6.80;;
44832;SDS011;30569;51.252;9.830;2022-12-18T15:46:17;12.67;;;6.73;;
44832;SDS011;30569;51.252;9.830;2022-12-18T15:48:47;14.03;;;6.87;;
44832;SDS011;30569;51.252;9.830;2022-12-18T15:51:18;13.33;;;6.27;;
44832;SDS011;30569;51.252;9.830;2022-12-18T15:53:47;14.93;;;6.50;;
44832;SDS011;30569;51.252;9.830;2022-12-18T15:56:15;15.83;;;6.93;;
44832;SDS011;30569;51.252;9.830;2022-12-18T15:59:00;14.47;;;6.93;;
44832;SDS011;30569;51.252;9.830;2022-12-18T16:01:27;13.40;;;6.10;;
44832;SDS011;30569;51.252;9.830;2022-12-18T16:03:54;12.93;;;6.60;;
44832;SDS011;30569;51.252;9.830;2022-12-18T16:06:20;14.20;;;7.33;;
44832;SDS011;30569;51.252;9.830;2022-12-18T16:08:49;12.67;;;6.47;;
44832;SDS011;30569;51.252;9.830;2022-12-18T16:11:24;14.80;;;7.53;;
44832;SDS011;30569;51.252;9.830;2022-12-18T16:14:04;17.40;;;8.83;;
44832;SDS011;30569;51.252;9.830;2022-12-18T16:16:43;14.93;;;7.17;;
44832;SDS011;30569;51.252;9.830;2022-12-18T16:19:13;14.73;;;7.40;;
44832;SDS011;30569;51.252;9.830;2022-12-18T16:21:39;18.27;;;8.27;;
44832;SDS011;30569;51.252;9.830;2022-12-18T16:24:05;18.13;;;8.03;;
44832;SDS011;30569;51.252;9.830;2022-12-18T16:26:33;17.93;;;8.90;;
44832;SDS011;30569;51.252;9.830;2022-12-18T16:28:59;15.87;;;7.40;;
44832;SDS011;30569;51.252;9.830;2022-12-18T16:31:24;16.20;;;8.17;;
44832;SDS011;30569;51.252;9.830;2022-12-18T16:34:09;15.77;;;7.47;;
44832;SDS011;30569;51.252;9.830;2022-12-18T16:36:51;16.47;;;7.53;;